sensor_id;sensor_type;location;lat;lon;timestamp;pressure;altitude;pressure_sealevel;temperature;humidity
53340;BME280;46212;50.258;19.062;2024-01-30T00:00:21;100291.56;;;-1.12;96.47
53340;BME280;46212;50.258;19.062;2024-01-30T00:02:47;100300.69;;;-1.04;96.63
53340;BME280;46212;50.258;19.062;2024-01-30T00:05:12;100295.50;;;-1.09;97.49
53340;BME280;46212;50.258;19.062;2024-01-30T00:07:38;100298.63;;;-1.31;98.30
53340;BME280;46212;50.258;19.062;2024-01-30T00:10:03;100285.94;;;-1.39;98.79
53340;BME280;46212;50.258;19.062;2024-01-30T00:12:31;100291.69;;;-1.53;99.25
53340;BME280;46212;50.258;19.062;2024-01-30T00:14:57;100289.50;;;-1.59;100.00
53340;BME280;46212;50.258;19.062;2024-01-30T00:17:23;100283.97;;;-1.63;100.00
53340;BME280;46212;50.258;19.062;2024-01-30T00:19:50;100291.50;;;-1.69;100.00
53340;BME280;46212;50.258;19.062;2024-01-30T00:22:15;100292.19;;;-1.72;100.00
53340;BME280;46212;50.258;19.062;2024-01-30T00:24:41;100283.59;;;-1.74;100.00
53340;BME280;46212;50.258;19.062;2024-01-30T00:27:08;100286.31;;;-1.62;100.00
53340;BME280;46212;50.258;19.062;2024-01-30T00:29:33;100279.38;;;-1.50;100.00
53340;BME280;46212;50.258;19.062;2024-01-30T00:31:59;100281.53;;;-1.44;100.00
53340;BME280;46212;50.258;19.062;2024-01-30T00:34:25;100283.94;;;-1.30;100.00
53340;BME280;46212;50.258;19.062;2024-01-30T00:36:50;100292.19;;;-1.27;100.00
53340;BME280;46212;50.258;19.062;2024-01-30T00:39:15;100287.09;;;-1.28;100.00
53340;BME280;46212;50.258;19.062;2024-01-30T00:41:41;100284.03;;;-1.39;100.00
53340;BME280;46212;50.258;19.062;2024-01-30T00:44:06;100282.81;;;-1.29;100.00
53340;BME280;46212;50.258;19.062;2024-01-30T00:46:32;100290.13;;;-1.30;99.60
53340;BME280;46212;50.258;19.062;2024-01-30T00:48:57;100294.03;;;-1.51;99.17
53340;BME280;46212;50.258;19.062;2024-01-30T00:51:22;100294.44;;;-1.62;99.67
53340;BME280;46212;50.258;19.062;2024-01-30T00:53:48;100282.38;;;-1.64;99.77
53340;BME280;46212;50.258;19.062;2024-01-30T00:56:13;100279.19;;;-1.78;99.37
53340;BME280;46212;50.258;19.062;2024-01-30T00:58:39;100286.81;;;-1.59;99.17
53340;BME280;46212;50.258;19.062;2024-01-30T01:01:04;100271.47;;;-1.55;98.75
53340;BME280;46212;50.258;19.062;2024-01-30T01:03:29;100276.81;;;-1.35;98.13
53340;BME280;46212;50.258;19.062;2024-01-30T01:05:55;100272.69;;;-1.65;97.83
53340;BME280;46212;50.258;19.062;2024-01-30T01:08:20;100269.47;;;-1.46;97.53
53340;BME280;46212;50.258;19.062;2024-01-30T01:10:45;100271.63;;;-1.40;96.92
53340;BME280;46212;50.258;19.062;2024-01-30T01:13:11;100259.97;;;-1.52;96.19
53340;BME280;46212;50.258;19.062;2024-01-30T01:15:36;100261.19;;;-1.62;96.03
53340;BME280;46212;50.258;19.062;2024-01-30T01:18:02;100272.56;;;-1.69;96.22
53340;BME280;46212;50.258;19.062;2024-01-30T01:20:28;100248.91;;;-1.80;96.29
53340;BME280;46212;50.258;19.062;2024-01-30T01:22:53;100257.66;;;-1.95;97.40
53340;BME280;46212;50.258;19.062;2024-01-30T01:25:19;100265.19;;;-2.01;98.17
53340;BME280;46212;50.258;19.062;2024-01-30T01:27:44;100253.00;;;-2.07;98.18
53340;BME280;46212;50.258;19.062;2024-01-30T01:30:16;100249.00;;;-1.89;98.64
53340;BME280;46212;50.258;19.062;2024-01-30T01:32:49;100252.50;;;-1.88;98.12
53340;BME280;46212;50.258;19.062;2024-01-30T01:35:24;100249.03;;;-1.77;97.49
53340;BME280;46212;50.258;19.062;2024-01-30T01:37:51;100258.31;;;-1.78;96.79
53340;BME280;46212;50.258;19.062;2024-01-30T01:40:27;100257.34;;;-1.94;96.79
53340;BME280;46212;50.258;19.062;2024-01-30T01:42:53;100248.78;;;-1.84;96.95
53340;BME280;46212;50.258;19.062;2024-01-30T01:45:19;100265.91;;;-1.92;97.89
53340;BME280;46212;50.258;19.062;2024-01-30T01:47:55;100259.53;;;-2.08;98.42
53340;BME280;46212;50.258;19.062;2024-01-30T01:50:21;100249.56;;;-2.16;98.19
53340;BME280;46212;50.258;19.062;2024-01-30T01:52:47;100234.78;;;-2.19;98.21
53340;BME280;46212;50.258;19.062;2024-01-30T01:55:14;100238.75;;;-2.16;98.09
53340;BME280;46212;50.258;19.062;2024-01-30T01:57:40;100238.44;;;-2.02;97.34
53340;BME280;46212;50.258;19.062;2024-01-30T02:00:07;100246.00;;;-1.75;96.58
53340;BME280;46212;50.258;19.062;2024-01-30T02:02:35;100239.34;;;-1.78;95.99
53340;BME280;46212;50.258;19.062;2024-01-30T02:05:02;100246.91;;;-1.71;95.90
53340;BME280;46212;50.258;19.062;2024-01-30T02:07:28;100240.91;;;-1.77;95.72
53340;BME280;46212;50.258;19.062;2024-01-30T02:09:54;100237.91;;;-1.75;95.80
53340;BME280;46212;50.258;19.062;2024-01-30T02:12:20;100237.25;;;-1.93;95.68
53340;BME280;46212;50.258;19.062;2024-01-30T02:14:49;100252.13;;;-1.99;95.92
53340;BME280;46212;50.258;19.062;2024-01-30T02:17:15;100251.75;;;-2.09;96.12
53340;BME280;46212;50.258;19.062;2024-01-30T02:19:41;100243.56;;;-2.22;97.18
53340;BME280;46212;50.258;19.062;2024-01-30T02:22:07;100232.19;;;-2.15;96.75
53340;BME280;46212;50.258;19.062;2024-01-30T02:24:32;100239.13;;;-2.05;96.45
53340;BME280;46212;50.258;19.062;2024-01-30T02:26:58;100231.66;;;-1.88;95.93
53340;BME280;46212;50.258;19.062;2024-01-30T02:29:23;100244.25;;;-1.92;95.31
53340;BME280;46212;50.258;19.062;2024-01-30T02:31:48;100245.72;;;-1.94;95.08
53340;BME280;46212;50.258;19.062;2024-01-30T02:34:14;100237.47;;;-1.98;95.20
53340;BME280;46212;50.258;19.062;2024-01-30T02:36:43;100237.28;;;-2.13;95.05
53340;BME280;46212;50.258;19.062;2024-01-30T02:39:09;100233.19;;;-2.20;95.26
53340;BME280;46212;50.258;19.062;2024-01-30T02:41:35;100238.53;;;-2.11;96.14
53340;BME280;46212;50.258;19.062;2024-01-30T02:44:00;100234.97;;;-2.24;95.67
53340;BME280;46212;50.258;19.062;2024-01-30T02:46:26;100218.56;;;-2.39;95.98
53340;BME280;46212;50.258;19.062;2024-01-30T02:48:51;100238.94;;;-2.21;95.43
53340;BME280;46212;50.258;19.062;2024-01-30T02:51:17;100230.75;;;-2.12;94.88
53340;BME280;46212;50.258;19.062;2024-01-30T02:53:42;100229.56;;;-2.24;95.03
53340;BME280;46212;50.258;19.062;2024-01-30T02:56:07;100230.94;;;-2.18;95.17
53340;BME280;46212;50.258;19.062;2024-01-30T02:58:35;100227.91;;;-2.37;95.26
53340;BME280;46212;50.258;19.062;2024-01-30T03:01:01;100231.03;;;-2.26;95.50
53340;BME280;46212;50.258;19.062;2024-01-30T03:03:27;100229.25;;;-2.22;95.36
53340;BME280;46212;50.258;19.062;2024-01-30T03:05:52;100241.59;;;-2.12;95.01
53340;BME280;46212;50.258;19.062;2024-01-30T03:08:17;100238.97;;;-2.09;94.54
53340;BME280;46212;50.258;19.062;2024-01-30T03:10:43;100221.19;;;-2.31;95.68
53340;BME280;46212;50.258;19.062;2024-01-30T03:13:08;100221.19;;;-2.31;95.41
53340;BME280;46212;50.258;19.062;2024-01-30T03:15:33;100233.53;;;-2.21;95.55
53340;BME280;46212;50.258;19.062;2024-01-30T03:17:59;100238.06;;;-2.34;94.39
53340;BME280;46212;50.258;19.062;2024-01-30T03:20:24;100218.69;;;-2.36;94.08
53340;BME280;46212;50.258;19.062;2024-01-30T03:22:49;100218.81;;;-2.53;93.86
53340;BME280;46212;50.258;19.062;2024-01-30T03:25:15;100222.69;;;-2.83;94.62
53340;BME280;46212;50.258;19.062;2024-01-30T03:27:40;100214.22;;;-2.82;95.06
53340;BME280;46212;50.258;19.062;2024-01-30T03:30:06;100207.44;;;-2.88;95.53
53340;BME280;46212;50.258;19.062;2024-01-30T03:32:32;100211.69;;;-2.57;95.43
53340;BME280;46212;50.258;19.062;2024-01-30T03:34:57;100213.47;;;-2.41;94.40
53340;BME280;46212;50.258;19.062;2024-01-30T03:37:23;100211.81;;;-2.33;94.02
53340;BME280;46212;50.258;19.062;2024-01-30T03:39:48;100217.69;;;-2.31;93.57
53340;BME280;46212;50.258;19.062;2024-01-30T03:42:14;100221.97;;;-2.30;93.57
53340;BME280;46212;50.258;19.062;2024-01-30T03:44:39;100210.72;;;-2.32;93.68
53340;BME280;46212;50.258;19.062;2024-01-30T03:47:05;100218.97;;;-2.29;94.17
53340;BME280;46212;50.258;19.062;2024-01-30T03:49:30;100229.31;;;-2.31;94.31
53340;BME280;46212;50.258;19.062;2024-01-30T03:51:55;100219.88;;;-2.45;94.45
53340;BME280;46212;50.258;19.062;2024-01-30T03:54:21;100221.31;;;-2.69;94.63
53340;BME280;46212;50.258;19.062;2024-01-30T03:56:46;100231.16;;;-2.43;94.95
53340;BME280;46212;50.258;19.062;2024-01-30T03:59:12;100224.56;;;-2.54;95.38
53340;BME280;46212;50.258;19.062;2024-01-30T04:01:37;100223.91;;;-2.51;95.26
53340;BME280;46212;50.258;19.062;2024-01-30T04:04:02;100227.72;;;-2.52;94.72
53340;BME280;46212;50.258;19.062;2024-01-30T04:06:28;100219.84;;;-2.66;95.20
53340;BME280;46212;50.258;19.062;2024-01-30T04:08:53;100215.22;;;-2.86;96.43
53340;BME280;46212;50.258;19.062;2024-01-30T04:11:19;100211.59;;;-2.90;98.13
53340;BME280;46212;50.258;19.062;2024-01-30T04:13:47;100205.16;;;-2.77;98.73
53340;BME280;46212;50.258;19.062;2024-01-30T04:16:22;100214.19;;;-2.52;98.67
53340;BME280;46212;50.258;19.062;2024-01-30T04:18:48;100213.47;;;-2.61;97.69
53340;BME280;46212;50.258;19.062;2024-01-30T04:21:13;100212.69;;;-2.41;98.13
53340;BME280;46212;50.258;19.062;2024-01-30T04:23:40;100198.69;;;-2.43;98.41
53340;BME280;46212;50.258;19.062;2024-01-30T04:26:05;100204.44;;;-2.45;99.02
53340;BME280;46212;50.258;19.062;2024-01-30T04:28:31;100201.44;;;-2.31;99.29
53340;BME280;46212;50.258;19.062;2024-01-30T04:30:56;100212.41;;;-2.07;99.37
53340;BME280;46212;50.258;19.062;2024-01-30T04:33:22;100202.78;;;-2.17;99.53
53340;BME280;46212;50.258;19.062;2024-01-30T04:35:47;100205.13;;;-2.15;99.79
53340;BME280;46212;50.258;19.062;2024-01-30T04:38:12;100212.66;;;-2.00;99.75
53340;BME280;46212;50.258;19.062;2024-01-30T04:40:39;100188.91;;;-1.82;99.50
53340;BME280;46212;50.258;19.062;2024-01-30T04:43:05;100212.44;;;-1.62;98.92
53340;BME280;46212;50.258;19.062;2024-01-30T04:45:30;100207.09;;;-1.58;98.13
53340;BME280;46212;50.258;19.062;2024-01-30T04:47:55;100213.19;;;-1.62;97.77
53340;BME280;46212;50.258;19.062;2024-01-30T04:50:21;100209.50;;;-1.57;97.49
53340;BME280;46212;50.258;19.062;2024-01-30T04:52:46;100216.72;;;-1.49;97.09
53340;BME280;46212;50.258;19.062;2024-01-30T04:55:12;100214.81;;;-1.48;97.38
53340;BME280;46212;50.258;19.062;2024-01-30T04:57:37;100205.31;;;-1.42;97.26
53340;BME280;46212;50.258;19.062;2024-01-30T05:00:03;100200.63;;;-1.33;96.76
53340;BME280;46212;50.258;19.062;2024-01-30T05:02:28;100206.03;;;-1.33;96.70
53340;BME280;46212;50.258;19.062;2024-01-30T05:04:54;100201.06;;;-1.43;96.32
53340;BME280;46212;50.258;19.062;2024-01-30T05:07:19;100221.38;;;-1.37;96.30
53340;BME280;46212;50.258;19.062;2024-01-30T05:09:45;100205.88;;;-1.49;96.43
53340;BME280;46212;50.258;19.062;2024-01-30T05:12:10;100194.47;;;-1.42;96.23
53340;BME280;46212;50.258;19.062;2024-01-30T05:14:36;100207.03;;;-1.26;96.23
53340;BME280;46212;50.258;19.062;2024-01-30T05:17:01;100202.97;;;-1.32;95.64
53340;BME280;46212;50.258;19.062;2024-01-30T05:19:28;100216.41;;;-1.35;95.92
53340;BME280;46212;50.258;19.062;2024-01-30T05:21:53;100219.13;;;-1.35;96.42
53340;BME280;46212;50.258;19.062;2024-01-30T05:24:19;100205.38;;;-1.30;96.07
53340;BME280;46212;50.258;19.062;2024-01-30T05:26:44;100214.16;;;-1.33;95.94
53340;BME280;46212;50.258;19.062;2024-01-30T05:29:10;100208.50;;;-1.28;96.43
53340;BME280;46212;50.258;19.062;2024-01-30T05:31:35;100218.00;;;-1.22;96.26
53340;BME280;46212;50.258;19.062;2024-01-30T05:34:01;100220.16;;;-1.16;95.68
53340;BME280;46212;50.258;19.062;2024-01-30T05:36:26;100198.59;;;-1.24;95.33
53340;BME280;46212;50.258;19.062;2024-01-30T05:38:52;100220.94;;;-1.27;94.01
53340;BME280;46212;50.258;19.062;2024-01-30T05:41:18;100210.88;;;-1.27;93.39
53340;BME280;46212;50.258;19.062;2024-01-30T05:43:43;100210.41;;;-1.53;92.83
53340;BME280;46212;50.258;19.062;2024-01-30T05:46:09;100223.53;;;-1.43;92.11
53340;BME280;46212;50.258;19.062;2024-01-30T05:48:34;100223.34;;;-1.58;91.74
53340;BME280;46212;50.258;19.062;2024-01-30T05:51:01;100218.03;;;-1.67;92.00
53340;BME280;46212;50.258;19.062;2024-01-30T05:53:26;100224.50;;;-1.59;91.58
53340;BME280;46212;50.258;19.062;2024-01-30T05:55:52;100209.13;;;-1.68;91.04
53340;BME280;46212;50.258;19.062;2024-01-30T05:58:17;100226.84;;;-1.70;91.33
53340;BME280;46212;50.258;19.062;2024-01-30T06:00:42;100223.19;;;-1.74;91.45
53340;BME280;46212;50.258;19.062;2024-01-30T06:03:08;100223.88;;;-1.77;91.56
53340;BME280;46212;50.258;19.062;2024-01-30T06:05:33;100215.97;;;-1.82;91.22
53340;BME280;46212;50.258;19.062;2024-01-30T06:07:58;100220.59;;;-1.83;90.98
53340;BME280;46212;50.258;19.062;2024-01-30T06:10:24;100217.09;;;-1.83;90.63
53340;BME280;46212;50.258;19.062;2024-01-30T06:12:49;100209.19;;;-1.88;90.57
53340;BME280;46212;50.258;19.062;2024-01-30T06:15:14;100230.84;;;-1.88;90.14
53340;BME280;46212;50.258;19.062;2024-01-30T06:17:40;100217.84;;;-1.95;90.36
53340;BME280;46212;50.258;19.062;2024-01-30T06:20:06;100232.06;;;-1.98;91.02
53340;BME280;46212;50.258;19.062;2024-01-30T06:22:31;100230.41;;;-2.11;91.48
53340;BME280;46212;50.258;19.062;2024-01-30T06:24:57;100234.06;;;-2.07;91.23
53340;BME280;46212;50.258;19.062;2024-01-30T06:27:22;100217.88;;;-2.16;91.16
53340;BME280;46212;50.258;19.062;2024-01-30T06:29:48;100233.91;;;-2.10;90.82
53340;BME280;46212;50.258;19.062;2024-01-30T06:32:13;100214.56;;;-2.21;90.68
53340;BME280;46212;50.258;19.062;2024-01-30T06:34:38;100229.44;;;-2.06;90.56
53340;BME280;46212;50.258;19.062;2024-01-30T06:37:05;100233.56;;;-2.09;90.27
53340;BME280;46212;50.258;19.062;2024-01-30T06:39:30;100227.38;;;-2.09;90.45
53340;BME280;46212;50.258;19.062;2024-01-30T06:41:56;100228.09;;;-2.21;90.24
53340;BME280;46212;50.258;19.062;2024-01-30T06:44:21;100224.94;;;-2.44;90.79
53340;BME280;46212;50.258;19.062;2024-01-30T06:46:47;100220.28;;;-2.35;90.75
53340;BME280;46212;50.258;19.062;2024-01-30T06:49:12;100230.16;;;-2.18;90.45
53340;BME280;46212;50.258;19.062;2024-01-30T06:51:38;100230.00;;;-2.01;90.08
53340;BME280;46212;50.258;19.062;2024-01-30T06:54:03;100234.09;;;-1.95;89.84
53340;BME280;46212;50.258;19.062;2024-01-30T06:56:29;100233.66;;;-1.97;89.82
53340;BME280;46212;50.258;19.062;2024-01-30T06:58:55;100220.84;;;-2.08;90.10
53340;BME280;46212;50.258;19.062;2024-01-30T07:01:20;100222.84;;;-2.38;90.87
53340;BME280;46212;50.258;19.062;2024-01-30T07:03:46;100219.13;;;-2.34;91.07
53340;BME280;46212;50.258;19.062;2024-01-30T07:06:11;100230.09;;;-2.09;91.03
53340;BME280;46212;50.258;19.062;2024-01-30T07:08:37;100239.50;;;-1.95;90.72
53340;BME280;46212;50.258;19.062;2024-01-30T07:11:07;100239.81;;;-1.76;90.19
53340;BME280;46212;50.258;19.062;2024-01-30T07:13:34;100232.50;;;-1.63;89.86
53340;BME280;46212;50.258;19.062;2024-01-30T07:15:59;100235.47;;;-1.56;89.50
53340;BME280;46212;50.258;19.062;2024-01-30T07:18:25;100242.81;;;-1.44;89.68
53340;BME280;46212;50.258;19.062;2024-01-30T07:20:50;100253.22;;;-1.34;89.63
53340;BME280;46212;50.258;19.062;2024-01-30T07:23:16;100244.31;;;-1.23;89.19
53340;BME280;46212;50.258;19.062;2024-01-30T07:25:46;100231.41;;;-1.38;89.47
53340;BME280;46212;50.258;19.062;2024-01-30T07:28:14;100243.97;;;-1.33;89.71
53340;BME280;46212;50.258;19.062;2024-01-30T07:30:41;100251.75;;;-1.20;89.80
53340;BME280;46212;50.258;19.062;2024-01-30T07:33:07;100240.38;;;-1.13;89.67
53340;BME280;46212;50.258;19.062;2024-01-30T07:35:33;100228.84;;;-1.34;90.22
53340;BME280;46212;50.258;19.062;2024-01-30T07:37:59;100243.94;;;-1.45;91.22
53340;BME280;46212;50.258;19.062;2024-01-30T07:40:24;100220.47;;;-1.41;91.58
53340;BME280;46212;50.258;19.062;2024-01-30T07:42:49;100235.50;;;-1.08;91.22
53340;BME280;46212;50.258;19.062;2024-01-30T07:45:15;100231.78;;;-0.91;90.69
53340;BME280;46212;50.258;19.062;2024-01-30T07:47:41;100232.25;;;-0.77;90.39
53340;BME280;46212;50.258;19.062;2024-01-30T07:50:08;100218.75;;;-0.61;90.13
53340;BME280;46212;50.258;19.062;2024-01-30T07:52:33;100225.44;;;-0.59;90.21
53340;BME280;46212;50.258;19.062;2024-01-30T07:54:59;100223.03;;;-0.48;90.44
53340;BME280;46212;50.258;19.062;2024-01-30T07:57:24;100235.84;;;-0.21;90.45
53340;BME280;46212;50.258;19.062;2024-01-30T07:59:50;100235.00;;;0.03;89.93
53340;BME280;46212;50.258;19.062;2024-01-30T08:02:15;100235.97;;;0.11;90.17
53340;BME280;46212;50.258;19.062;2024-01-30T08:04:41;100241.69;;;0.21;89.75
53340;BME280;46212;50.258;19.062;2024-01-30T08:07:06;100240.41;;;0.31;89.88
53340;BME280;46212;50.258;19.062;2024-01-30T08:09:32;100237.41;;;0.36;90.17
53340;BME280;46212;50.258;19.062;2024-01-30T08:11:57;100230.31;;;0.31;90.28
53340;BME280;46212;50.258;19.062;2024-01-30T08:14:22;100230.28;;;0.16;90.87
53340;BME280;46212;50.258;19.062;2024-01-30T08:16:48;100231.03;;;0.28;91.36
53340;BME280;46212;50.258;19.062;2024-01-30T08:19:14;100230.00;;;0.48;90.87
53340;BME280;46212;50.258;19.062;2024-01-30T08:21:40;100247.09;;;0.65;89.78
53340;BME280;46212;50.258;19.062;2024-01-30T08:24:06;100233.53;;;0.80;89.17
53340;BME280;46212;50.258;19.062;2024-01-30T08:26:32;100242.91;;;0.98;88.61
53340;BME280;46212;50.258;19.062;2024-01-30T08:28:58;100236.81;;;1.21;86.90
53340;BME280;46212;50.258;19.062;2024-01-30T08:31:24;100245.56;;;1.45;84.09
53340;BME280;46212;50.258;19.062;2024-01-30T08:33:49;100231.03;;;1.57;83.87
53340;BME280;46212;50.258;19.062;2024-01-30T08:36:16;100231.22;;;1.83;83.31
53340;BME280;46212;50.258;19.062;2024-01-30T08:38:41;100237.31;;;2.15;81.77
53340;BME280;46212;50.258;19.062;2024-01-30T08:41:07;100238.88;;;2.16;81.20
53340;BME280;46212;50.258;19.062;2024-01-30T08:43:33;100242.03;;;2.37;80.72
53340;BME280;46212;50.258;19.062;2024-01-30T08:45:59;100252.75;;;2.49;79.69
53340;BME280;46212;50.258;19.062;2024-01-30T08:48:25;100242.97;;;2.67;78.18
53340;BME280;46212;50.258;19.062;2024-01-30T08:50:50;100240.00;;;2.53;78.21
53340;BME280;46212;50.258;19.062;2024-01-30T08:53:16;100243.38;;;2.69;78.22
53340;BME280;46212;50.258;19.062;2024-01-30T08:55:41;100241.44;;;2.70;77.29
53340;BME280;46212;50.258;19.062;2024-01-30T08:58:07;100247.94;;;2.85;76.97
53340;BME280;46212;50.258;19.062;2024-01-30T09:00:33;100249.22;;;2.91;76.63
53340;BME280;46212;50.258;19.062;2024-01-30T09:02:58;100244.03;;;3.08;75.00
53340;BME280;46212;50.258;19.062;2024-01-30T09:05:24;100241.84;;;3.44;74.05
53340;BME280;46212;50.258;19.062;2024-01-30T09:07:49;100244.00;;;3.31;73.56
53340;BME280;46212;50.258;19.062;2024-01-30T09:10:14;100249.25;;;3.43;73.33
53340;BME280;46212;50.258;19.062;2024-01-30T09:12:41;100232.19;;;3.50;73.31
53340;BME280;46212;50.258;19.062;2024-01-30T09:15:06;100240.03;;;3.51;72.42
53340;BME280;46212;50.258;19.062;2024-01-30T09:17:32;100247.16;;;3.59;72.19
53340;BME280;46212;50.258;19.062;2024-01-30T09:19:58;100242.13;;;3.61;71.14
53340;BME280;46212;50.258;19.062;2024-01-30T09:22:24;100238.53;;;3.84;71.30
53340;BME280;46212;50.258;19.062;2024-01-30T09:24:49;100242.41;;;3.83;71.42
53340;BME280;46212;50.258;19.062;2024-01-30T09:27:15;100241.81;;;4.00;71.38
53340;BME280;46212;50.258;19.062;2024-01-30T09:29:40;100241.47;;;4.01;70.85
53340;BME280;46212;50.258;19.062;2024-01-30T09:32:05;100236.94;;;4.16;70.37
53340;BME280;46212;50.258;19.062;2024-01-30T09:34:31;100234.88;;;4.39;69.16
53340;BME280;46212;50.258;19.062;2024-01-30T09:36:58;100245.06;;;4.42;68.30
53340;BME280;46212;50.258;19.062;2024-01-30T09:39:23;100238.03;;;4.45;68.75
53340;BME280;46212;50.258;19.062;2024-01-30T09:41:55;100228.34;;;4.51;69.03
53340;BME280;46212;50.258;19.062;2024-01-30T09:44:26;100230.13;;;4.73;67.18
53340;BME280;46212;50.258;19.062;2024-01-30T09:46:53;100236.81;;;4.75;67.32
53340;BME280;46212;50.258;19.062;2024-01-30T09:49:20;100240.31;;;4.76;66.36
53340;BME280;46212;50.258;19.062;2024-01-30T09:51:46;100234.91;;;4.83;67.16
53340;BME280;46212;50.258;19.062;2024-01-30T09:54:14;100226.66;;;4.79;64.99
53340;BME280;46212;50.258;19.062;2024-01-30T09:56:40;100225.50;;;4.80;64.95
53340;BME280;46212;50.258;19.062;2024-01-30T09:59:06;100222.81;;;4.84;64.45
53340;BME280;46212;50.258;19.062;2024-01-30T10:01:31;100231.84;;;4.88;64.45
53340;BME280;46212;50.258;19.062;2024-01-30T10:03:58;100220.59;;;5.00;64.42
53340;BME280;46212;50.258;19.062;2024-01-30T10:06:24;100222.19;;;5.05;63.91
53340;BME280;46212;50.258;19.062;2024-01-30T10:08:50;100222.25;;;5.12;63.82
53340;BME280;46212;50.258;19.062;2024-01-30T10:11:15;100221.44;;;5.11;63.45
53340;BME280;46212;50.258;19.062;2024-01-30T10:13:40;100219.59;;;5.22;62.54
53340;BME280;46212;50.258;19.062;2024-01-30T10:16:06;100208.25;;;5.24;62.88
53340;BME280;46212;50.258;19.062;2024-01-30T10:18:32;100203.84;;;5.09;63.15
53340;BME280;46212;50.258;19.062;2024-01-30T10:20:58;100200.41;;;5.22;64.06
53340;BME280;46212;50.258;19.062;2024-01-30T10:23:23;100192.28;;;5.36;63.33
53340;BME280;46212;50.258;19.062;2024-01-30T10:25:51;100204.13;;;5.51;63.33
53340;BME280;46212;50.258;19.062;2024-01-30T10:28:16;100200.91;;;5.39;62.83
53340;BME280;46212;50.258;19.062;2024-01-30T10:30:42;100189.50;;;5.33;62.67
53340;BME280;46212;50.258;19.062;2024-01-30T10:33:07;100189.97;;;5.42;62.76
53340;BME280;46212;50.258;19.062;2024-01-30T10:35:33;100182.09;;;5.33;62.62
53340;BME280;46212;50.258;19.062;2024-01-30T10:37:59;100174.69;;;5.38;61.98
53340;BME280;46212;50.258;19.062;2024-01-30T10:40:28;100186.50;;;5.56;62.49
53340;BME280;46212;50.258;19.062;2024-01-30T10:42:55;100168.59;;;5.76;60.46
53340;BME280;46212;50.258;19.062;2024-01-30T10:45:22;100179.25;;;5.88;60.48
53340;BME280;46212;50.258;19.062;2024-01-30T10:47:53;100174.59;;;5.92;60.88
53340;BME280;46212;50.258;19.062;2024-01-30T10:50:20;100172.31;;;6.12;59.56
53340;BME280;46212;50.258;19.062;2024-01-30T10:52:45;100168.78;;;6.15;58.88
53340;BME280;46212;50.258;19.062;2024-01-30T10:55:12;100179.31;;;6.09;58.47
53340;BME280;46212;50.258;19.062;2024-01-30T10:57:39;100171.19;;;6.34;57.84
53340;BME280;46212;50.258;19.062;2024-01-30T11:00:08;100160.97;;;6.41;57.55
53340;BME280;46212;50.258;19.062;2024-01-30T11:02:42;100163.72;;;6.45;55.51
53340;BME280;46212;50.258;19.062;2024-01-30T11:05:08;100157.47;;;6.52;55.06
53340;BME280;46212;50.258;19.062;2024-01-30T11:07:34;100154.69;;;6.41;55.65
53340;BME280;46212;50.258;19.062;2024-01-30T11:12:30;100152.78;;;6.77;55.31
53340;BME280;46212;50.258;19.062;2024-01-30T11:15:15;100146.09;;;6.95;54.29
53340;BME280;46212;50.258;19.062;2024-01-30T11:20:19;100146.09;;;7.03;53.63
53340;BME280;46212;50.258;19.062;2024-01-30T11:22:45;100153.91;;;7.18;53.15
53340;BME280;46212;50.258;19.062;2024-01-30T11:25:16;100145.66;;;7.29;52.64
53340;BME280;46212;50.258;19.062;2024-01-30T11:27:46;100147.25;;;7.02;52.85
53340;BME280;46212;50.258;19.062;2024-01-30T11:35:36;100137.78;;;7.45;51.73
53340;BME280;46212;50.258;19.062;2024-01-30T11:38:03;100133.81;;;7.53;52.25
53340;BME280;46212;50.258;19.062;2024-01-30T11:40:29;100139.88;;;7.96;51.46
53340;BME280;46212;50.258;19.062;2024-01-30T11:42:56;100125.91;;;7.62;51.71
53340;BME280;46212;50.258;19.062;2024-01-30T11:45:21;100130.94;;;7.81;50.91
53340;BME280;46212;50.258;19.062;2024-01-30T11:47:47;100124.09;;;8.14;50.58
53340;BME280;46212;50.258;19.062;2024-01-30T11:50:13;100122.03;;;8.29;49.46
53340;BME280;46212;50.258;19.062;2024-01-30T11:52:39;100111.84;;;8.19;49.85
53340;BME280;46212;50.258;19.062;2024-01-30T11:55:05;100113.75;;;8.36;49.88
53340;BME280;46212;50.258;19.062;2024-01-30T11:57:30;100102.63;;;8.50;49.05
53340;BME280;46212;50.258;19.062;2024-01-30T11:59:56;100105.56;;;8.73;48.86
53340;BME280;46212;50.258;19.062;2024-01-30T12:02:21;100099.72;;;8.68;48.79
53340;BME280;46212;50.258;19.062;2024-01-30T12:04:47;100099.41;;;8.59;47.76
53340;BME280;46212;50.258;19.062;2024-01-30T12:07:12;100098.72;;;8.44;49.17
53340;BME280;46212;50.258;19.062;2024-01-30T12:09:41;100099.16;;;8.39;48.80
53340;BME280;46212;50.258;19.062;2024-01-30T12:12:07;100085.19;;;8.64;48.31
53340;BME280;46212;50.258;19.062;2024-01-30T12:14:38;100091.53;;;8.57;47.84
53340;BME280;46212;50.258;19.062;2024-01-30T12:17:04;100094.69;;;8.59;47.98
53340;BME280;46212;50.258;19.062;2024-01-30T12:19:30;100084.94;;;8.47;47.81
53340;BME280;46212;50.258;19.062;2024-01-30T12:21:58;100080.41;;;8.75;47.69
53340;BME280;46212;50.258;19.062;2024-01-30T12:24:27;100078.47;;;8.68;47.69
53340;BME280;46212;50.258;19.062;2024-01-30T12:26:57;100076.59;;;8.58;47.50
53340;BME280;46212;50.258;19.062;2024-01-30T12:29:22;100071.44;;;8.64;48.34
53340;BME280;46212;50.258;19.062;2024-01-30T12:31:48;100084.16;;;8.91;47.73
53340;BME280;46212;50.258;19.062;2024-01-30T12:34:14;100063.28;;;8.94;47.69
53340;BME280;46212;50.258;19.062;2024-01-30T12:36:41;100072.63;;;8.63;47.97
53340;BME280;46212;50.258;19.062;2024-01-30T12:39:11;100062.41;;;8.60;48.88
53340;BME280;46212;50.258;19.062;2024-01-30T12:41:36;100071.59;;;8.90;48.16
53340;BME280;46212;50.258;19.062;2024-01-30T12:44:02;100075.16;;;9.25;46.75
53340;BME280;46212;50.258;19.062;2024-01-30T12:46:28;100064.38;;;9.37;47.24